Time;durP1;ratioP1;P1;durP2;ratioP2;P2;SDS_P1;SDS_P2;PMS_P1;PMS_P2;Temp;Humidity;BMP_temperature;BMP_pressure;BME280_temperature;BME280_humidity;BME280_pressure;Samples;Min_cycle;Max_cycle;Signal;HPM_P1;HPM_P2
2022/07/29 00:00:46;;;;;;;5.05;1.30;;;;;;;;;;5096515;28;20363;-85
2022/07/29 00:03:12;;;;;;;4.03;1.15;;;;;;;;;;5077551;28;20036;-84
2022/07/29 00:05:39;;;;;;;2.03;0.95;;;;;;;;;;5075701;28;20082;-84
2022/07/29 00:08:05;;;;;;;4.32;1.05;;;;;;;;;;5057894;28;20041;-84
2022/07/29 00:10:31;;;;;;;4.82;1.27;;;;;;;;;;5074458;28;20108;-84
2022/07/29 00:12:57;;;;;;;2.25;1.23;;;;;;;;;;5077197;28;20056;-84
2022/07/29 00:15:23;;;;;;;1.90;1.10;;;;;;;;;;5090598;28;20501;-84
2022/07/29 00:17:49;;;;;;;3.55;1.05;;;;;;;;;;5073782;28;20466;-84
2022/07/29 00:20:15;;;;;;;3.80;1.20;;;;;;;;;;5076029;28;20036;-85
2022/07/29 00:22:41;;;;;;;3.10;1.00;;;;;;;;;;5075464;28;20036;-85
2022/07/29 00:25:07;;;;;;;1.83;0.95;;;;;;;;;;5093845;28;20036;-85
2022/07/29 00:27:34;;;;;;;3.03;1.00;;;;;;;;;;5094297;28;20036;-84
2022/07/29 00:29:59;;;;;;;2.30;0.98;;;;;;;;;;5068009;28;20029;-86
2022/07/29 00:32:25;;;;;;;3.05;1.10;;;;;;;;;;5084108;28;20055;-85
2022/07/29 00:37:36;;;;;;;2.33;0.80;;;;;;;;;;5075747;28;20039;-84
2022/07/29 00:40:02;;;;;;;4.55;1.00;;;;;;;;;;5075271;28;20071;-84
2022/07/29 00:42:29;;;;;;;3.08;0.90;;;;;;;;;;5075233;28;20033;-85
2022/07/29 00:44:54;;;;;;;2.10;1.10;;;;;;;;;;5070093;28;20074;-84
2022/07/29 00:47:20;;;;;;;4.25;1.17;;;;;;;;;;5062065;28;20064;-84
2022/07/29 00:49:47;;;;;;;2.42;1.15;;;;;;;;;;5102208;28;20036;-84
2022/07/29 00:52:13;;;;;;;2.83;1.20;;;;;;;;;;5080307;28;20041;-84
2022/07/29 00:54:40;;;;;;;2.92;1.17;;;;;;;;;;5089965;28;20032;-85
2022/07/29 00:57:08;;;;;;;2.15;1.10;;;;;;;;;;5073727;28;20083;-84
2022/07/29 00:59:34;;;;;;;4.30;1.20;;;;;;;;;;5090680;28;20029;-84
2022/07/29 01:02:00;;;;;;;2.58;1.13;;;;;;;;;;5090418;28;20036;-84
2022/07/29 01:04:26;;;;;;;2.65;1.33;;;;;;;;;;5090585;28;20390;-84
2022/07/29 01:06:53;;;;;;;2.75;1.30;;;;;;;;;;5097155;28;20063;-84
2022/07/29 01:09:20;;;;;;;4.75;1.17;;;;;;;;;;5058694;28;20071;-84
2022/07/29 01:11:50;;;;;;;2.33;1.27;;;;;;;;;;5054585;28;20087;-85
2022/07/29 01:14:16;;;;;;;2.38;1.10;;;;;;;;;;5090534;28;20028;-84
2022/07/29 01:16:46;;;;;;;3.85;1.10;;;;;;;;;;5088788;28;20032;-85
2022/07/29 01:19:21;;;;;;;2.50;1.33;;;;;;;;;;5089881;28;20041;-85
2022/07/29 01:21:52;;;;;;;2.55;1.40;;;;;;;;;;5074614;28;20036;-84
2022/07/29 01:24:18;;;;;;;4.53;1.17;;;;;;;;;;5086486;28;20053;-84
2022/07/29 01:27:02;;;;;;;2.20;1.42;;;;;;;;;;5040679;28;20516;-84
2022/07/29 01:30:01;;;;;;;3.17;1.20;;;;;;;;;;5074735;28;20037;-84
2022/07/29 01:32:28;;;;;;;3.80;1.35;;;;;;;;;;5030431;28;20033;-85
2022/07/29 01:35:12;;;;;;;3.38;1.52;;;;;;;;;;5054435;28;20054;-84
2022/07/29 01:37:41;;;;;;;4.88;1.50;;;;;;;;;;5068283;28;20033;-84
2022/07/29 01:40:11;;;;;;;3.78;1.40;;;;;;;;;;5069793;28;20056;-85
2022/07/29 01:42:50;;;;;;;2.80;1.50;;;;;;;;;;5054430;28;20383;-84
2022/07/29 01:45:19;;;;;;;4.20;1.30;;;;;;;;;;5069841;28;20064;-84
2022/07/29 01:47:51;;;;;;;4.35;1.15;;;;;;;;;;5052225;28;20414;-85
2022/07/29 01:50:18;;;;;;;3.05;1.30;;;;;;;;;;5074598;28;20025;-84
2022/07/29 01:52:47;;;;;;;2.78;1.40;;;;;;;;;;5091334;28;20383;-84
2022/07/29 01:55:14;;;;;;;4.40;1.33;;;;;;;;;;5071540;28;20382;-85
2022/07/29 01:57:41;;;;;;;3.53;1.70;;;;;;;;;;5096204;28;20082;-85
2022/07/29 02:00:07;;;;;;;4.35;1.50;;;;;;;;;;5065415;28;20470;-84
2022/07/29 02:02:34;;;;;;;4.18;1.25;;;;;;;;;;5060159;28;20367;-85
2022/07/29 02:05:00;;;;;;;2.05;1.20;;;;;;;;;;5097450;28;20028;-84
2022/07/29 02:07:30;;;;;;;3.00;1.40;;;;;;;;;;5093300;28;20591;-84
2022/07/29 02:09:57;;;;;;;3.53;1.20;;;;;;;;;;5081988;28;20097;-84
2022/07/29 02:12:24;;;;;;;2.10;1.40;;;;;;;;;;5081117;28;20090;-84
2022/07/29 02:14:52;;;;;;;5.20;1.40;;;;;;;;;;5055483;28;20024;-84
2022/07/29 02:17:24;;;;;;;2.15;1.30;;;;;;;;;;5072204;28;20398;-85
2022/07/29 02:19:50;;;;;;;3.72;1.40;;;;;;;;;;5059963;28;20174;-85
2022/07/29 02:22:17;;;;;;;5.22;1.20;;;;;;;;;;5093546;28;20153;-85
2022/07/29 02:24:43;;;;;;;2.47;1.30;;;;;;;;;;5064023;28;20033;-85
2022/07/29 02:27:10;;;;;;;1.67;1.40;;;;;;;;;;5053113;28;20041;-84
2022/07/29 02:29:37;;;;;;;3.65;1.50;;;;;;;;;;5068030;28;20051;-86
2022/07/29 02:32:04;;;;;;;4.65;1.30;;;;;;;;;;5077356;28;20036;-85
2022/07/29 02:34:30;;;;;;;3.42;1.55;;;;;;;;;;5073464;28;20024;-85
2022/07/29 02:36:56;;;;;;;3.88;1.80;;;;;;;;;;5087653;28;20024;-85
2022/07/29 02:39:23;;;;;;;3.38;1.40;;;;;;;;;;5088543;28;20556;-85
2022/07/29 02:41:52;;;;;;;2.50;1.50;;;;;;;;;;5071181;28;20037;-84
2022/07/29 02:44:19;;;;;;;4.90;1.52;;;;;;;;;;5087941;28;20190;-85
2022/07/29 02:46:51;;;;;;;4.25;1.80;;;;;;;;;;5089571;28;20032;-85
2022/07/29 02:49:20;;;;;;;4.82;1.55;;;;;;;;;;5075131;28;20070;-85
2022/07/29 02:51:58;;;;;;;2.70;1.58;;;;;;;;;;5070523;28;20032;-84
2022/07/29 02:54:32;;;;;;;3.38;1.60;;;;;;;;;;5092490;28;20488;-84
2022/07/29 02:56:59;;;;;;;4.03;1.30;;;;;;;;;;5092468;28;20028;-84
2022/07/29 02:59:27;;;;;;;4.67;1.60;;;;;;;;;;5074792;28;20514;-84
2022/07/29 03:01:54;;;;;;;2.80;1.50;;;;;;;;;;5080820;28;20627;-84
2022/07/29 03:04:21;;;;;;;2.83;1.40;;;;;;;;;;5086633;28;20028;-84
2022/07/29 03:06:47;;;;;;;4.82;1.33;;;;;;;;;;5063300;28;20036;-85
2022/07/29 03:09:16;;;;;;;3.88;1.75;;;;;;;;;;5079509;28;20032;-84
2022/07/29 03:11:42;;;;;;;2.00;1.58;;;;;;;;;;5087674;28;20032;-85
2022/07/29 03:14:08;;;;;;;4.38;1.60;;;;;;;;;;5088051;28;20032;-84
2022/07/29 03:16:36;;;;;;;3.30;1.40;;;;;;;;;;5081110;28;20056;-85
2022/07/29 03:19:02;;;;;;;3.38;1.75;;;;;;;;;;5069689;28;20048;-84
2022/07/29 03:21:28;;;;;;;3.78;1.80;;;;;;;;;;5092525;28;20032;-85
2022/07/29 03:23:54;;;;;;;3.35;1.67;;;;;;;;;;5060511;28;20055;-84
2022/07/29 03:26:20;;;;;;;2.28;1.58;;;;;;;;;;5067018;28;20036;-84
2022/07/29 03:28:46;;;;;;;2.10;1.30;;;;;;;;;;5087896;28;20040;-84
2022/07/29 03:31:12;;;;;;;3.60;1.60;;;;;;;;;;5092234;28;20024;-84
2022/07/29 03:33:38;;;;;;;3.28;1.55;;;;;;;;;;5087013;28;20032;-85
2022/07/29 03:36:04;;;;;;;2.65;1.60;;;;;;;;;;5086648;28;20072;-84
2022/07/29 03:38:34;;;;;;;3.08;1.50;;;;;;;;;;5071866;28;20040;-85
2022/07/29 03:41:02;;;;;;;2.58;1.50;;;;;;;;;;5087388;28;20028;-85
2022/07/29 03:43:31;;;;;;;2.88;1.40;;;;;;;;;;5072025;28;20033;-84
2022/07/29 03:45:58;;;;;;;2.97;1.30;;;;;;;;;;5088364;28;20394;-85
2022/07/29 03:48:24;;;;;;;4.35;1.50;;;;;;;;;;5101218;28;20409;-84
2022/07/29 03:50:51;;;;;;;3.53;1.40;;;;;;;;;;5074281;28;20032;-85
2022/07/29 03:53:17;;;;;;;4.07;1.63;;;;;;;;;;5058777;28;20442;-84
2022/07/29 03:55:48;;;;;;;4.82;1.50;;;;;;;;;;5054200;28;20075;-84
2022/07/29 03:58:14;;;;;;;4.32;1.38;;;;;;;;;;5053128;28;20114;-84
2022/07/29 04:00:40;;;;;;;2.42;1.27;;;;;;;;;;5054149;28;20478;-85
2022/07/29 04:03:06;;;;;;;3.20;1.55;;;;;;;;;;5053361;28;20036;-84
2022/07/29 04:05:33;;;;;;;2.17;1.60;;;;;;;;;;5054106;28;20493;-84
2022/07/29 04:07:59;;;;;;;2.90;1.70;;;;;;;;;;5071566;28;20515;-85
2022/07/29 04:10:25;;;;;;;2.88;1.05;;;;;;;;;;5071990;28;20108;-84
2022/07/29 04:12:51;;;;;;;4.05;1.55;;;;;;;;;;5070788;28;20459;-84
2022/07/29 04:15:17;;;;;;;2.58;1.40;;;;;;;;;;5087143;28;20078;-85
2022/07/29 04:17:43;;;;;;;2.42;1.30;;;;;;;;;;5085460;28;20496;-84
2022/07/29 04:20:09;;;;;;;2.75;1.40;;;;;;;;;;5071914;28;20119;-85
2022/07/29 04:22:35;;;;;;;2.92;1.67;;;;;;;;;;5086736;28;20505;-85
2022/07/29 04:25:01;;;;;;;2.88;1.60;;;;;;;;;;5087181;28;20037;-84
2022/07/29 04:27:27;;;;;;;4.13;1.58;;;;;;;;;;5089184;28;20041;-85
2022/07/29 04:29:53;;;;;;;3.60;1.80;;;;;;;;;;5072748;28;20044;-84
2022/07/29 04:32:19;;;;;;;2.17;1.33;;;;;;;;;;5059598;28;20111;-85
2022/07/29 04:34:46;;;;;;;3.38;1.73;;;;;;;;;;5084300;28;20162;-85
2022/07/29 04:37:12;;;;;;;3.08;1.80;;;;;;;;;;5083349;28;20036;-85
2022/07/29 04:39:38;;;;;;;2.55;1.58;;;;;;;;;;5053976;28;20394;-84
2022/07/29 04:42:04;;;;;;;4.20;2.05;;;;;;;;;;5091656;28;20032;-84
2022/07/29 04:44:30;;;;;;;3.72;1.90;;;;;;;;;;5062574;28;20032;-84
2022/07/29 04:46:57;;;;;;;3.17;1.67;;;;;;;;;;5057065;28;20028;-84
2022/07/29 04:49:23;;;;;;;3.10;1.50;;;;;;;;;;5079694;28;20037;-85
2022/07/29 04:51:49;;;;;;;3.50;1.73;;;;;;;;;;5089939;28;20067;-85
2022/07/29 04:54:18;;;;;;;2.83;1.60;;;;;;;;;;5072088;28;20036;-84
2022/07/29 04:56:46;;;;;;;4.47;1.85;;;;;;;;;;5074332;28;20033;-84
2022/07/29 04:59:12;;;;;;;3.75;2.10;;;;;;;;;;5056746;28;20475;-84
2022/07/29 05:01:38;;;;;;;2.55;1.80;;;;;;;;;;5083163;28;20450;-85
2022/07/29 05:04:04;;;;;;;2.53;1.50;;;;;;;;;;5077278;28;20069;-84
2022/07/29 05:06:30;;;;;;;3.22;2.08;;;;;;;;;;5075952;28;20044;-84
2022/07/29 05:08:56;;;;;;;2.85;1.70;;;;;;;;;;5062971;28;20112;-85
2022/07/29 05:11:22;;;;;;;2.95;1.80;;;;;;;;;;5054706;28;20539;-85
2022/07/29 05:13:48;;;;;;;4.07;1.90;;;;;;;;;;5107245;28;20378;-85
2022/07/29 05:16:14;;;;;;;2.42;1.55;;;;;;;;;;5075849;28;20028;-86
2022/07/29 05:18:40;;;;;;;6.75;1.77;;;;;;;;;;5054491;28;20034;-85
2022/07/29 05:21:06;;;;;;;4.60;1.52;;;;;;;;;;5069883;28;20033;-85
2022/07/29 05:23:32;;;;;;;3.55;1.55;;;;;;;;;;5054205;28;20386;-85
2022/07/29 05:26:00;;;;;;;2.97;1.60;;;;;;;;;;5085318;28;20040;-84
2022/07/29 05:28:26;;;;;;;3.25;1.52;;;;;;;;;;5071234;28;20059;-84
2022/07/29 05:30:52;;;;;;;3.08;1.70;;;;;;;;;;5094667;28;20482;-85
2022/07/29 05:33:18;;;;;;;3.95;1.63;;;;;;;;;;5080406;28;20032;-85
2022/07/29 05:35:44;;;;;;;2.65;1.50;;;;;;;;;;5074329;28;20036;-85
2022/07/29 05:38:10;;;;;;;2.60;1.27;;;;;;;;;;5089103;28;20035;-84
2022/07/29 05:40:36;;;;;;;5.88;1.63;;;;;;;;;;5088914;28;20082;-85
2022/07/29 05:43:02;;;;;;;4.85;1.60;;;;;;;;;;5089826;28;20038;-85
2022/07/29 05:45:28;;;;;;;3.60;1.70;;;;;;;;;;5089468;28;20043;-84
2022/07/29 05:47:55;;;;;;;3.70;1.83;;;;;;;;;;5089709;28;20119;-84
2022/07/29 05:50:21;;;;;;;2.35;1.60;;;;;;;;;;5089817;28;20036;-84
2022/07/29 05:52:47;;;;;;;3.58;1.67;;;;;;;;;;5088961;28;20548;-84
2022/07/29 05:55:13;;;;;;;3.13;1.35;;;;;;;;;;5089996;28;20111;-85
2022/07/29 05:57:39;;;;;;;3.50;1.40;;;;;;;;;;5093594;28;20075;-85
2022/07/29 06:00:05;;;;;;;4.00;1.40;;;;;;;;;;5068726;28;20040;-85
2022/07/29 06:02:31;;;;;;;2.85;1.45;;;;;;;;;;5065978;28;20378;-85
2022/07/29 06:04:57;;;;;;;3.47;1.40;;;;;;;;;;5097495;28;20040;-85
2022/07/29 06:07:23;;;;;;;4.05;1.65;;;;;;;;;;5075611;28;20072;-84
2022/07/29 06:09:49;;;;;;;5.43;1.60;;;;;;;;;;5056818;28;20039;-85
2022/07/29 06:12:15;;;;;;;3.92;1.60;;;;;;;;;;5056884;28;20037;-85
2022/07/29 06:14:41;;;;;;;3.65;1.55;;;;;;;;;;5063908;28;20467;-84
2022/07/29 06:17:07;;;;;;;2.22;1.48;;;;;;;;;;5072707;28;20505;-84
2022/07/29 06:19:36;;;;;;;2.65;1.50;;;;;;;;;;5075399;28;20393;-85
2022/07/29 06:22:02;;;;;;;2.08;1.50;;;;;;;;;;5090984;28;20043;-84
2022/07/29 06:24:28;;;;;;;3.35;1.42;;;;;;;;;;5073364;28;20074;-84
2022/07/29 06:26:54;;;;;;;4.88;1.60;;;;;;;;;;5088005;28;20045;-84
2022/07/29 06:29:20;;;;;;;3.45;1.70;;;;;;;;;;5072328;28;20024;-85
2022/07/29 06:31:46;;;;;;;4.47;1.50;;;;;;;;;;5086178;28;20040;-84
2022/07/29 06:34:12;;;;;;;4.20;1.55;;;;;;;;;;5087335;28;20037;-84
2022/07/29 06:36:38;;;;;;;2.70;1.80;;;;;;;;;;5054609;28;20036;-86
2022/07/29 06:39:08;;;;;;;2.42;1.58;;;;;;;;;;5070964;28;20036;-84
2022/07/29 06:41:34;;;;;;;3.75;1.70;;;;;;;;;;5051707;28;20394;-86
2022/07/29 06:44:00;;;;;;;6.10;1.70;;;;;;;;;;5053192;28;20357;-82
2022/07/29 06:46:27;;;;;;;4.40;1.80;;;;;;;;;;5084180;28;20039;-81
2022/07/29 06:48:53;;;;;;;6.47;1.60;;;;;;;;;;5087120;28;20087;-81
2022/07/29 06:51:19;;;;;;;3.88;1.92;;;;;;;;;;5086626;28;20032;-80
2022/07/29 06:53:45;;;;;;;3.78;1.95;;;;;;;;;;5071581;28;20060;-81
2022/07/29 06:56:13;;;;;;;5.10;1.73;;;;;;;;;;5071852;28;20525;-81
2022/07/29 06:58:40;;;;;;;4.47;1.60;;;;;;;;;;5053265;28;20041;-81
2022/07/29 07:01:08;;;;;;;4.47;1.75;;;;;;;;;;5068868;28;20036;-81
2022/07/29 07:03:34;;;;;;;4.55;1.85;;;;;;;;;;5070745;28;20036;-81
2022/07/29 07:06:00;;;;;;;2.83;1.58;;;;;;;;;;5068483;28;20108;-82
2022/07/29 07:08:26;;;;;;;4.15;1.67;;;;;;;;;;5085359;28;20048;-81
2022/07/29 07:10:53;;;;;;;3.38;1.50;;;;;;;;;;5086612;28;20078;-82
2022/07/29 07:13:19;;;;;;;2.70;1.55;;;;;;;;;;5052151;28;20078;-81
2022/07/29 07:15:47;;;;;;;3.92;1.63;;;;;;;;;;5086321;28;20107;-82
2022/07/29 07:18:13;;;;;;;3.63;1.58;;;;;;;;;;5071058;28;20032;-83
2022/07/29 07:20:39;;;;;;;2.90;1.55;;;;;;;;;;5069762;28;20032;-81
2022/07/29 07:23:05;;;;;;;3.08;1.50;;;;;;;;;;5047608;28;20530;-82
2022/07/29 07:25:32;;;;;;;3.30;1.70;;;;;;;;;;5086883;28;20036;-81
2022/07/29 07:27:58;;;;;;;4.97;1.80;;;;;;;;;;5086200;28;20082;-82
2022/07/29 07:30:24;;;;;;;5.53;1.58;;;;;;;;;;5048293;28;20032;-82
2022/07/29 07:32:50;;;;;;;3.47;1.73;;;;;;;;;;5070362;28;20033;-82
2022/07/29 07:35:16;;;;;;;2.20;1.35;;;;;;;;;;5070784;28;20040;-82
2022/07/29 07:37:42;;;;;;;3.03;1.50;;;;;;;;;;5068643;28;20043;-82
2022/07/29 07:40:11;;;;;;;3.80;1.90;;;;;;;;;;5083763;28;20059;-81
2022/07/29 07:42:37;;;;;;;3.45;1.80;;;;;;;;;;5080765;28;20250;-82
2022/07/29 07:45:03;;;;;;;3.55;1.80;;;;;;;;;;5071135;28;20084;-81
2022/07/29 07:47:29;;;;;;;2.80;1.23;;;;;;;;;;5087177;28;20060;-82
2022/07/29 07:49:55;;;;;;;2.55;1.63;;;;;;;;;;5055795;28;20471;-81
2022/07/29 07:52:21;;;;;;;6.22;1.65;;;;;;;;;;5071709;28;20124;-83
2022/07/29 07:54:48;;;;;;;5.15;1.60;;;;;;;;;;5071162;28;20032;-83
2022/07/29 07:57:14;;;;;;;5.68;1.70;;;;;;;;;;5070650;28;20028;-85
2022/07/29 07:59:40;;;;;;;2.95;1.58;;;;;;;;;;5086473;28;20040;-81
2022/07/29 08:02:06;;;;;;;2.60;1.70;;;;;;;;;;5090608;28;20504;-83
2022/07/29 08:04:33;;;;;;;2.42;1.45;;;;;;;;;;5052053;28;20156;-83
2022/07/29 08:06:59;;;;;;;2.72;1.67;;;;;;;;;;5051873;28;20037;-82
2022/07/29 08:09:26;;;;;;;3.58;2.00;;;;;;;;;;5050341;28;20037;-82
2022/07/29 08:11:52;;;;;;;2.28;1.50;;;;;;;;;;5083261;28;20053;-83
2022/07/29 08:14:18;;;;;;;5.10;1.92;;;;;;;;;;5084512;28;20078;-82
2022/07/29 08:16:44;;;;;;;2.65;1.80;;;;;;;;;;5070776;28;20058;-82
2022/07/29 08:19:10;;;;;;;4.82;2.10;;;;;;;;;;5072182;28;20048;-82
2022/07/29 08:21:36;;;;;;;3.00;1.50;;;;;;;;;;5073154;28;20036;-81
2022/07/29 08:26:47;;;;;;;2.92;1.67;;;;;;;;;;5055964;28;20048;-82
2022/07/29 08:29:13;;;;;;;3.40;2.05;;;;;;;;;;5101186;28;20032;-82
2022/07/29 08:31:39;;;;;;;2.75;1.70;;;;;;;;;;5090290;28;20035;-82
2022/07/29 08:34:06;;;;;;;3.10;1.48;;;;;;;;;;5090212;28;20032;-82
2022/07/29 08:36:32;;;;;;;2.95;1.48;;;;;;;;;;5090345;28;20375;-83
2022/07/29 08:38:59;;;;;;;3.95;2.00;;;;;;;;;;5090216;28;20550;-82
2022/07/29 08:41:25;;;;;;;3.17;2.10;;;;;;;;;;5089632;28;20079;-82
2022/07/29 08:43:52;;;;;;;3.20;2.08;;;;;;;;;;5090048;28;20371;-82
2022/07/29 08:46:18;;;;;;;3.05;1.80;;;;;;;;;;5091504;28;20043;-82
2022/07/29 08:48:44;;;;;;;12.50;2.50;;;;;;;;;;5094725;28;20433;-82
2022/07/29 08:51:14;;;;;;;3.33;2.42;;;;;;;;;;5090248;28;20086;-81
2022/07/29 08:53:42;;;;;;;2.95;2.17;;;;;;;;;;5104642;28;20038;-81
2022/07/29 08:56:11;;;;;;;3.20;2.10;;;;;;;;;;5082912;28;20036;-81
2022/07/29 08:58:37;;;;;;;4.65;2.38;;;;;;;;;;5062400;28;20123;-82
2022/07/29 09:01:03;;;;;;;3.70;2.33;;;;;;;;;;5076868;28;20447;-82
2022/07/29 09:03:33;;;;;;;4.00;2.38;;;;;;;;;;5073088;28;20090;-81
2022/07/29 09:05:59;;;;;;;4.78;2.35;;;;;;;;;;5084791;28;20110;-82
2022/07/29 09:08:25;;;;;;;6.10;2.53;;;;;;;;;;5078140;28;20052;-82
2022/07/29 09:10:51;;;;;;;4.25;2.50;;;;;;;;;;5074216;28;20466;-82
2022/07/29 09:13:17;;;;;;;2.10;1.63;;;;;;;;;;5072977;28;20494;-82
2022/07/29 09:15:44;;;;;;;2.90;2.25;;;;;;;;;;5089635;28;20066;-82
2022/07/29 09:18:09;;;;;;;2.30;1.92;;;;;;;;;;5073435;28;20033;-82
2022/07/29 09:23:20;;;;;;;3.85;2.03;;;;;;;;;;5074264;28;20107;-82
2022/07/29 09:25:46;;;;;;;4.28;2.05;;;;;;;;;;5089661;28;20056;-82
2022/07/29 09:28:13;;;;;;;3.95;2.33;;;;;;;;;;5078518;28;20051;-81
2022/07/29 09:30:55;;;;;;;3.20;2.05;;;;;;;;;;5086934;28;20341;-81
2022/07/29 09:33:21;;;;;;;5.15;2.53;;;;;;;;;;5086971;28;20509;-82
2022/07/29 09:35:59;;;;;;;4.72;2.33;;;;;;;;;;5088119;28;20033;-82
2022/07/29 09:38:24;;;;;;;4.10;2.40;;;;;;;;;;5053007;28;20024;-81
2022/07/29 09:40:57;;;;;;;3.72;2.10;;;;;;;;;;5072767;28;20040;-82
2022/07/29 09:43:23;;;;;;;5.55;1.90;;;;;;;;;;5071041;28;20108;-81
2022/07/29 09:45:49;;;;;;;5.03;2.33;;;;;;;;;;5072956;28;20067;-82
2022/07/29 09:48:17;;;;;;;3.40;1.95;;;;;;;;;;5087849;28;20049;-82
2022/07/29 09:50:44;;;;;;;8.80;2.70;;;;;;;;;;5086830;28;20071;-82
2022/07/29 09:53:10;;;;;;;3.75;2.10;;;;;;;;;;5086857;28;20031;-83
2022/07/29 09:55:56;;;;;;;4.35;2.30;;;;;;;;;;5087874;28;20028;-82
2022/07/29 09:58:22;;;;;;;5.70;2.20;;;;;;;;;;5053871;28;20131;-82
2022/07/29 10:00:49;;;;;;;2.85;1.80;;;;;;;;;;5072277;28;20196;-82
2022/07/29 10:03:16;;;;;;;8.23;2.85;;;;;;;;;;5094839;28;20089;-82
2022/07/29 10:05:43;;;;;;;5.57;2.50;;;;;;;;;;5094049;28;20040;-82
2022/07/29 10:08:09;;;;;;;7.50;2.70;;;;;;;;;;5059860;28;20131;-81
2022/07/29 10:10:37;;;;;;;5.53;2.80;;;;;;;;;;5044405;28;20048;-81
2022/07/29 10:13:04;;;;;;;5.07;2.70;;;;;;;;;;5086144;28;20045;-83
2022/07/29 10:15:31;;;;;;;5.57;2.70;;;;;;;;;;5074757;28;20043;-82
2022/07/29 10:17:58;;;;;;;7.72;2.90;;;;;;;;;;5088042;28;20049;-81
2022/07/29 10:20:24;;;;;;;5.22;2.67;;;;;;;;;;5098964;28;20046;-82
2022/07/29 10:22:51;;;;;;;4.10;2.42;;;;;;;;;;5062083;28;20422;-82
2022/07/29 10:25:17;;;;;;;4.60;2.63;;;;;;;;;;5093848;28;20037;-82
2022/07/29 10:27:47;;;;;;;7.30;3.25;;;;;;;;;;5088193;28;20494;-82
2022/07/29 10:30:14;;;;;;;4.25;2.35;;;;;;;;;;5087579;28;20029;-82
2022/07/29 10:32:49;;;;;;;6.45;2.70;;;;;;;;;;5061948;28;20032;-81
2022/07/29 10:35:20;;;;;;;4.05;2.60;;;;;;;;;;5073134;28;20029;-82
2022/07/29 10:38:00;;;;;;;5.95;2.70;;;;;;;;;;5055121;28;20029;-81
2022/07/29 10:43:37;;;;;;;4.87;2.50;;;;;;;;;;4995875;28;20076;-82
2022/07/29 10:46:03;;;;;;;7.45;3.58;;;;;;;;;;5056281;28;20319;-82
2022/07/29 10:48:30;;;;;;;4.25;2.50;;;;;;;;;;5074943;28;20040;-82
2022/07/29 10:50:58;;;;;;;7.00;3.03;;;;;;;;;;5072127;28;20375;-82
2022/07/29 10:53:24;;;;;;;6.88;3.33;;;;;;;;;;5059170;28;20438;-82
2022/07/29 10:55:51;;;;;;;6.07;3.03;;;;;;;;;;5063099;28;20028;-81
2022/07/29 10:58:18;;;;;;;3.80;2.20;;;;;;;;;;5086269;28;20048;-81
2022/07/29 11:00:44;;;;;;;8.32;3.67;;;;;;;;;;5087979;28;20043;-82
2022/07/29 11:03:30;;;;;;;5.63;2.53;;;;;;;;;;5072215;28;20033;-81
2022/07/29 11:05:57;;;;;;;4.10;2.88;;;;;;;;;;5087281;28;20119;-80
2022/07/29 11:08:23;;;;;;;5.15;2.90;;;;;;;;;;5075766;28;20043;-81
2022/07/29 11:10:54;;;;;;;5.53;3.33;;;;;;;;;;5058890;28;20035;-82
2022/07/29 11:13:54;;;;;;;5.78;3.40;;;;;;;;;;5080131;28;20036;-82
2022/07/29 11:16:22;;;;;;;4.57;2.72;;;;;;;;;;5035748;28;20171;-82
2022/07/29 11:19:06;;;;;;;3.72;2.67;;;;;;;;;;5086084;28;20081;-81
2022/07/29 11:21:36;;;;;;;3.95;2.45;;;;;;;;;;5070478;28;20086;-82
2022/07/29 11:24:15;;;;;;;4.25;2.95;;;;;;;;;;5086066;28;20036;-81
2022/07/29 11:26:41;;;;;;;3.00;2.15;;;;;;;;;;5086588;28;20052;-81
2022/07/29 11:29:17;;;;;;;5.78;3.13;;;;;;;;;;5095646;28;20043;-81
2022/07/29 11:31:44;;;;;;;5.90;3.15;;;;;;;;;;5087940;28;20540;-82
2022/07/29 11:34:19;;;;;;;4.63;3.85;;;;;;;;;;5086925;28;20128;-81
2022/07/29 11:37:04;;;;;;;3.72;2.60;;;;;;;;;;5091207;28;20025;-82
2022/07/29 11:39:30;;;;;;;6.13;3.38;;;;;;;;;;5071169;28;20416;-81
2022/07/29 11:42:15;;;;;;;4.38;2.70;;;;;;;;;;5087592;28;20120;-81
2022/07/29 11:44:56;;;;;;;4.40;2.78;;;;;;;;;;5066792;28;20566;-81
2022/07/29 11:47:22;;;;;;;3.33;2.42;;;;;;;;;;5053581;28;20037;-81
2022/07/29 11:49:49;;;;;;;3.10;2.45;;;;;;;;;;5069524;28;20033;-81
2022/07/29 11:52:15;;;;;;;4.80;2.50;;;;;;;;;;5083963;28;20398;-82
2022/07/29 11:54:43;;;;;;;6.20;2.05;;;;;;;;;;5088580;28;20036;-81
2022/07/29 11:57:09;;;;;;;6.18;2.70;;;;;;;;;;5060340;28;20032;-81
2022/07/29 11:59:42;;;;;;;6.68;2.70;;;;;;;;;;5048815;28;20056;-82
2022/07/29 12:02:08;;;;;;;4.07;2.40;;;;;;;;;;5073631;28;20025;-81
2022/07/29 12:04:34;;;;;;;3.05;2.13;;;;;;;;;;5090326;28;20040;-81
2022/07/29 12:07:01;;;;;;;3.95;2.50;;;;;;;;;;5105933;28;20062;-82
2022/07/29 12:09:27;;;;;;;2.38;2.10;;;;;;;;;;5078249;28;20123;-82
2022/07/29 12:11:57;;;;;;;3.03;1.95;;;;;;;;;;5076393;28;20107;-82
2022/07/29 12:14:30;;;;;;;3.38;2.03;;;;;;;;;;5103516;28;20474;-71
2022/07/29 12:16:57;;;;;;;3.90;2.10;;;;;;;;;;5078809;28;20033;-77
2022/07/29 12:19:23;;;;;;;3.60;1.88;;;;;;;;;;5076867;28;20105;-77
2022/07/29 12:21:53;;;;;;;3.15;2.17;;;;;;;;;;5078426;28;20535;-77
2022/07/29 12:24:22;;;;;;;3.75;2.47;;;;;;;;;;5060074;28;20028;-77
2022/07/29 12:26:52;;;;;;;5.45;2.80;;;;;;;;;;5059818;28;20032;-80
2022/07/29 12:29:18;;;;;;;4.93;2.80;;;;;;;;;;5068694;28;20048;-78
2022/07/29 12:31:46;;;;;;;4.68;2.35;;;;;;;;;;5080581;28;20283;-79
2022/07/29 12:34:12;;;;;;;3.38;2.60;;;;;;;;;;5086711;28;20024;-80
2022/07/29 12:36:38;;;;;;;4.90;2.90;;;;;;;;;;5093945;28;20029;-78
2022/07/29 12:39:04;;;;;;;3.58;2.92;;;;;;;;;;5077174;28;20036;-78
2022/07/29 12:41:31;;;;;;;4.03;2.35;;;;;;;;;;5060176;28;20036;-78
2022/07/29 12:43:57;;;;;;;4.55;2.67;;;;;;;;;;5077614;28;20203;-77
2022/07/29 12:46:23;;;;;;;4.05;2.47;;;;;;;;;;5078228;28;20036;-78
2022/07/29 12:48:56;;;;;;;5.22;2.50;;;;;;;;;;5093097;28;20482;-78
2022/07/29 12:51:33;;;;;;;4.55;2.38;;;;;;;;;;5060374;28;20033;-77
2022/07/29 12:54:04;;;;;;;5.03;2.50;;;;;;;;;;5099987;28;20036;-78
2022/07/29 12:56:30;;;;;;;3.83;2.78;;;;;;;;;;5077375;28;20028;-79
2022/07/29 12:58:56;;;;;;;3.50;2.30;;;;;;;;;;5092800;28;20048;-79
2022/07/29 13:01:22;;;;;;;5.05;2.33;;;;;;;;;;5092891;28;20045;-78
2022/07/29 13:03:52;;;;;;;4.22;2.20;;;;;;;;;;5102996;28;20050;-77
2022/07/29 13:06:29;;;;;;;4.22;2.22;;;;;;;;;;5064888;28;20035;-77
2022/07/29 13:09:08;;;;;;;4.82;2.15;;;;;;;;;;5089204;28;20043;-78
2022/07/29 13:11:34;;;;;;;4.22;2.13;;;;;;;;;;5082112;28;20039;-78
2022/07/29 13:14:00;;;;;;;3.28;2.20;;;;;;;;;;5056900;28;20035;-77
2022/07/29 13:16:26;;;;;;;6.38;2.05;;;;;;;;;;5076614;28;20039;-78
2022/07/29 13:19:09;;;;;;;6.82;2.22;;;;;;;;;;5084045;28;20621;-78
2022/07/29 13:21:35;;;;;;;2.95;1.90;;;;;;;;;;5058579;28;20032;-78
2022/07/29 13:24:01;;;;;;;2.00;1.75;;;;;;;;;;5101050;28;20028;-78
2022/07/29 13:26:27;;;;;;;4.97;1.70;;;;;;;;;;5062146;28;20128;-79
2022/07/29 13:28:56;;;;;;;3.78;1.50;;;;;;;;;;5076660;28;20381;-79
2022/07/29 13:31:22;;;;;;;;;;;;;;;;;;5070619;28;20103;-78
2022/07/29 13:33:48;;;;;;;3.47;1.50;;;;;;;;;;5058127;28;20330;-77
2022/07/29 13:36:14;;;;;;;2.08;1.50;;;;;;;;;;5090102;28;20033;-78
2022/07/29 13:38:40;;;;;;;2.95;1.83;;;;;;;;;;5088954;28;20391;-77
2022/07/29 13:41:06;;;;;;;4.40;1.65;;;;;;;;;;5083555;28;20063;-78
2022/07/29 13:43:32;;;;;;;1.60;1.50;;;;;;;;;;5068936;28;20082;-78
2022/07/29 13:45:58;;;;;;;2.53;1.52;;;;;;;;;;5069865;28;20052;-78
2022/07/29 13:48:24;;;;;;;1.55;1.42;;;;;;;;;;5086317;28;20060;-78
2022/07/29 13:50:50;;;;;;;3.10;1.40;;;;;;;;;;5089919;28;20072;-78
2022/07/29 13:53:16;;;;;;;2.83;1.90;;;;;;;;;;5089222;28;20036;-79
2022/07/29 13:55:42;;;;;;;3.10;1.60;;;;;;;;;;5109215;28;20063;-78
2022/07/29 13:58:08;;;;;;;1.92;1.60;;;;;;;;;;5075758;28;20056;-78
2022/07/29 14:00:34;;;;;;;1.90;1.58;;;;;;;;;;5093797;28;20036;-78
2022/07/29 14:03:00;;;;;;;1.88;1.50;;;;;;;;;;5093552;28;20545;-79
2022/07/29 14:05:26;;;;;;;2.15;1.80;;;;;;;;;;5075981;28;20036;-78
2022/07/29 14:07:52;;;;;;;3.03;1.50;;;;;;;;;;5074055;28;20683;-79
2022/07/29 14:10:18;;;;;;;2.55;1.60;;;;;;;;;;5088806;28;20047;-78
2022/07/29 14:12:44;;;;;;;2.75;1.88;;;;;;;;;;5075033;28;20044;-80
2022/07/29 14:15:10;;;;;;;1.67;1.45;;;;;;;;;;5072322;28;20360;-79
2022/07/29 14:17:36;;;;;;;3.55;1.60;;;;;;;;;;5086200;28;20036;-78
2022/07/29 14:20:02;;;;;;;2.20;1.70;;;;;;;;;;5086892;28;20051;-78
2022/07/29 14:22:29;;;;;;;2.88;1.90;;;;;;;;;;5084960;28;20041;-78
2022/07/29 14:24:55;;;;;;;1.70;1.60;;;;;;;;;;5054307;28;20483;-79
2022/07/29 14:27:21;;;;;;;3.17;1.77;;;;;;;;;;5088442;28;20032;-79
2022/07/29 14:29:46;;;;;;;3.90;1.90;;;;;;;;;;5088518;28;20506;-81
2022/07/29 14:32:14;;;;;;;2.95;2.00;;;;;;;;;;5072351;28;20589;-83
2022/07/29 14:34:40;;;;;;;3.23;2.10;;;;;;;;;;5057203;28;20033;-82
2022/07/29 14:37:08;;;;;;;2.67;2.00;;;;;;;;;;5084860;28;20032;-81
2022/07/29 14:39:34;;;;;;;2.73;2.00;;;;;;;;;;5086861;28;20482;-83
2022/07/29 14:42:00;;;;;;;3.00;1.65;;;;;;;;;;5056622;28;20386;-81
2022/07/29 14:44:30;;;;;;;2.28;1.80;;;;;;;;;;5087878;28;20037;-84
2022/07/29 14:46:56;;;;;;;2.92;2.00;;;;;;;;;;5072875;28;20113;-82
2022/07/29 14:49:22;;;;;;;2.75;2.00;;;;;;;;;;5055139;28;20475;-81
2022/07/29 14:51:48;;;;;;;3.17;1.92;;;;;;;;;;5052198;28;20123;-81
2022/07/29 14:54:14;;;;;;;2.90;1.70;;;;;;;;;;5053739;28;20035;-83
2022/07/29 14:56:40;;;;;;;2.08;1.88;;;;;;;;;;5086685;28;20384;-79